Terminal Aerodrome Forecast
Issued by NWS Sterling, VA

Current Version | Previous Version | Graphics & Text | Print | Product List | Glossary On
Versions: 1 2 3 4 5 6 7 8 9 10 11 12 13 14 15 16 17 18 19 20 21
000
FTUS41 KLWX 160241 AAA
TAFMRB
TAF AMD
KMRB 160241Z 1603/1624 00000KT 5SM BR FEW050
     FM160700 00000KT 2SM BR FEW200
     FM161300 VRB03KT P6SM BKN150
     FM162200 02005KT P6SM SCT035=

USA.gov is the U.S. government's official web portal to all federal, state and local government web resources and services.